Time;durP1;ratioP1;P1;durP2;ratioP2;P2;SDS_P1;SDS_P2;PMS_P1;PMS_P2;Temp;Humidity;BMP_temperature;BMP_pressure;BME280_temperature;BME280_humidity;BME280_pressure;Samples;Min_cycle;Max_cycle;Signal;HPM_P1;HPM_P2
2022/08/15 00:01:36;;;;;;;5.35;4.47;;;;;;;32.99;32.59;97426.84;5086398;28;20075;-78
2022/08/15 00:04:05;;;;;;;4.82;4.22;;;;;;;32.08;34.50;97428.84;5084106;28;20036;-78
2022/08/15 00:06:45;;;;;;;5.88;4.85;;;;;;;32.49;33.78;97431.44;5088762;28;20039;-78
2022/08/15 00:09:23;;;;;;;4.43;4.00;;;;;;;33.06;32.03;97429.22;5088642;28;20031;-78
2022/08/15 00:11:52;;;;;;;4.43;3.67;;;;;;;33.44;31.46;97428.56;5089339;28;20032;-78
2022/08/15 00:14:21;;;;;;;4.93;4.07;;;;;;;33.53;31.50;97421.13;5085619;28;20040;-78
2022/08/15 00:16:48;;;;;;;5.30;4.05;;;;;;;33.64;31.16;97415.44;5086848;28;20067;-78
2022/08/15 00:19:22;;;;;;;4.05;3.65;;;;;;;33.93;30.69;97410.03;5086977;28;20996;-78
2022/08/15 00:21:52;;;;;;;4.32;3.85;;;;;;;34.23;29.89;97415.22;5087892;28;20545;-78
2022/08/15 00:24:21;;;;;;;4.05;3.65;;;;;;;34.32;29.62;97412.88;5092635;28;20028;-78
2022/08/15 00:26:49;;;;;;;3.33;3.03;;;;;;;34.33;29.75;97407.97;5087807;28;20507;-78
2022/08/15 00:29:19;;;;;;;3.78;2.95;;;;;;;33.94;29.76;97405.09;5088402;28;20028;-78
2022/08/15 00:31:45;;;;;;;4.88;4.35;;;;;;;33.13;31.10;97408.81;5090473;28;20100;-79
2022/08/15 00:34:14;;;;;;;5.05;4.45;;;;;;;33.21;31.20;97407.03;5089223;28;20032;-78
2022/08/15 00:36:41;;;;;;;3.67;3.38;;;;;;;33.03;31.93;97401.78;5088275;28;20024;-78
2022/08/15 00:39:08;;;;;;;4.93;4.38;;;;;;;32.89;32.20;97405.59;5088643;28;20028;-78
2022/08/15 00:41:41;;;;;;;6.95;4.57;;;;;;;32.48;32.77;97401.47;5091197;28;20032;-78
2022/08/15 00:44:23;;;;;;;4.97;4.50;;;;;;;32.64;32.66;97398.75;5088151;28;20466;-78
2022/08/15 00:47:03;;;;;;;4.97;3.72;;;;;;;32.83;32.72;97401.16;5088833;28;20126;-78
2022/08/15 00:49:32;;;;;;;5.63;4.57;;;;;;;33.11;31.97;97405.72;5091267;28;20388;-79
2022/08/15 00:52:00;;;;;;;4.90;4.30;;;;;;;33.39;31.48;97400.88;5089137;28;20042;-79
2022/08/15 00:54:50;;;;;;;5.78;4.75;;;;;;;33.39;31.60;97411.47;5091533;28;20135;-78
2022/08/15 00:57:41;;;;;;;4.18;3.78;;;;;;;33.39;31.52;97412.28;5090646;28;20032;-78
2022/08/15 01:00:21;;;;;;;4.82;4.32;;;;;;;33.02;31.85;97417.31;5089529;28;20024;-78
2022/08/15 01:02:48;;;;;;;4.35;3.95;;;;;;;32.80;32.47;97408.66;5089360;28;20032;-77
2022/08/15 01:05:15;;;;;;;5.07;4.40;;;;;;;32.88;32.49;97412.59;5088198;28;20031;-79
2022/08/15 01:07:43;;;;;;;4.55;4.10;;;;;;;32.84;32.65;97411.28;5090186;28;20035;-78
2022/08/15 01:10:10;;;;;;;4.65;4.15;;;;;;;33.24;32.20;97411.69;5088848;28;20032;-78
2022/08/15 01:12:38;;;;;;;7.22;4.97;;;;;;;33.13;32.52;97405.19;5089840;28;20102;-78
2022/08/15 01:15:08;;;;;;;5.78;5.18;;;;;;;33.10;32.48;97409.84;5087761;28;20483;-78
2022/08/15 01:17:34;;;;;;;5.18;4.38;;;;;;;33.39;32.03;97405.78;5090010;28;20042;-78
2022/08/15 01:20:11;;;;;;;5.00;4.43;;;;;;;33.88;31.07;97401.47;5089344;28;20036;-78
2022/08/15 01:22:47;;;;;;;4.97;4.45;;;;;;;34.21;30.54;97401.50;5090941;28;20034;-78
2022/08/15 01:25:16;;;;;;;3.63;3.33;;;;;;;34.32;29.91;97401.47;5088039;28;20114;-78
2022/08/15 01:27:52;;;;;;;5.30;4.28;;;;;;;34.45;30.36;97403.81;5089537;28;20068;-78
2022/08/15 01:30:22;;;;;;;4.55;4.13;;;;;;;34.21;30.31;97392.16;5087924;28;20379;-80
2022/08/15 01:32:48;;;;;;;3.92;3.55;;;;;;;34.15;30.26;97388.53;5086748;28;21111;-78
2022/08/15 01:35:14;;;;;;;4.05;3.67;;;;;;;34.35;30.31;97396.81;5088486;28;20101;-80
2022/08/15 01:37:42;;;;;;;4.03;3.65;;;;;;;34.39;30.25;97391.63;5089249;28;20027;-78
2022/08/15 01:40:28;;;;;;;3.70;3.40;;;;;;;34.58;29.96;97390.56;5088636;28;20039;-78
2022/08/15 01:42:56;;;;;;;3.90;3.53;;;;;;;34.67;29.51;97390.28;5091756;28;20032;-78
2022/08/15 01:45:26;;;;;;;3.90;3.58;;;;;;;34.17;30.25;97385.97;5090736;28;20036;-78
2022/08/15 01:48:06;;;;;;;5.57;3.47;;;;;;;33.71;31.24;97387.22;5088684;28;20032;-78
2022/08/15 01:50:42;;;;;;;4.32;3.92;;;;;;;32.79;32.94;97384.38;5089083;28;20185;-78
2022/08/15 01:53:20;;;;;;;4.03;3.63;;;;;;;32.61;33.34;97376.25;5086966;28;20028;-78
2022/08/15 01:55:51;;;;;;;3.70;3.40;;;;;;;32.70;33.39;97387.41;5089352;28;20032;-78
2022/08/15 01:58:20;;;;;;;3.40;3.10;;;;;;;33.23;32.02;97376.00;5085747;28;20404;-79
2022/08/15 02:00:55;;;;;;;3.22;3.03;;;;;;;33.84;31.29;97383.88;5089659;28;20488;-78
2022/08/15 02:03:33;;;;;;;3.47;3.17;;;;;;;33.66;31.35;97372.97;5091722;28;20032;-79
2022/08/15 02:06:14;;;;;;;3.83;3.53;;;;;;;32.99;32.39;97366.31;5088760;28;20024;-79
2022/08/15 02:08:43;;;;;;;3.33;3.05;;;;;;;32.34;33.66;97369.13;5084574;28;20420;-78
2022/08/15 02:11:13;;;;;;;3.03;2.80;;;;;;;32.77;33.07;97367.00;5088865;28;20036;-78
2022/08/15 02:13:40;;;;;;;3.65;3.35;;;;;;;33.38;31.48;97361.53;5096812;28;20039;-78
2022/08/15 02:16:06;;;;;;;3.83;3.53;;;;;;;33.23;32.13;97364.63;5090089;28;20051;-79
2022/08/15 02:18:32;;;;;;;3.40;3.13;;;;;;;32.72;32.85;97360.03;5093090;28;20039;-78
2022/08/15 02:20:59;;;;;;;3.20;3.00;;;;;;;32.83;32.18;97353.63;5089450;28;20055;-79
2022/08/15 02:23:26;;;;;;;3.15;2.85;;;;;;;33.21;31.60;97346.50;5088849;28;20036;-78
2022/08/15 02:25:54;;;;;;;2.92;2.72;;;;;;;33.74;30.69;97342.72;5091034;28;20051;-78
2022/08/15 02:28:22;;;;;;;2.70;2.50;;;;;;;34.05;29.92;97343.22;5091118;28;20089;-79
2022/08/15 02:30:49;;;;;;;3.15;2.45;;;;;;;34.31;29.36;97345.75;5089580;28;20067;-78
2022/08/15 02:33:15;;;;;;;1.95;1.85;;;;;;;34.29;29.46;97344.72;5086746;28;20055;-79
2022/08/15 02:35:43;;;;;;;2.05;1.95;;;;;;;34.39;28.72;97343.16;5088674;28;20058;-79
2022/08/15 02:38:09;;;;;;;1.90;1.80;;;;;;;34.45;28.75;97341.84;5087920;28;20388;-78
2022/08/15 02:40:36;;;;;;;1.90;1.80;;;;;;;34.51;28.60;97336.91;5089767;28;20103;-78
2022/08/15 02:43:08;;;;;;;2.20;2.10;;;;;;;34.60;28.40;97330.16;5085441;28;20032;-78
2022/08/15 02:45:38;;;;;;;2.60;2.40;;;;;;;34.52;28.03;97331.94;5086147;28;20036;-78
2022/08/15 02:48:06;;;;;;;2.33;2.13;;;;;;;33.80;29.30;97332.06;5087619;28;20024;-78
2022/08/15 02:50:34;;;;;;;1.63;1.52;;;;;;;33.27;29.67;97333.06;5082658;28;20052;-78
2022/08/15 02:53:19;;;;;;;1.45;1.35;;;;;;;33.39;29.61;97334.63;5087751;28;20074;-78
2022/08/15 02:55:47;;;;;;;1.70;1.60;;;;;;;33.80;29.04;97324.31;5086203;28;20114;-78
2022/08/15 02:58:14;;;;;;;2.08;1.98;;;;;;;34.05;28.58;97331.81;5088486;28;20066;-79
2022/08/15 03:00:43;;;;;;;1.63;1.52;;;;;;;34.24;28.21;97337.00;5088336;28;20048;-79
2022/08/15 03:03:14;;;;;;;1.73;1.63;;;;;;;34.26;28.05;97329.44;5085995;28;20549;-79
2022/08/15 03:05:44;;;;;;;2.15;2.05;;;;;;;34.03;28.67;97330.78;5088111;28;20085;-79
2022/08/15 03:08:10;;;;;;;1.73;1.63;;;;;;;33.64;29.17;97324.31;5088250;28;20036;-78
2022/08/15 03:10:38;;;;;;;1.73;1.63;;;;;;;33.72;28.97;97319.66;5084594;28;20479;-78
2022/08/15 03:13:07;;;;;;;2.28;1.30;;;;;;;33.98;28.53;97326.63;5090381;28;20044;-78
2022/08/15 03:15:42;;;;;;;1.50;1.40;;;;;;;34.20;27.93;97334.38;5085362;28;20028;-78
2022/08/15 03:18:09;;;;;;;1.55;1.45;;;;;;;34.33;27.54;97331.75;5087145;28;20044;-78
2022/08/15 03:20:36;;;;;;;1.55;1.45;;;;;;;34.31;27.87;97331.50;5089359;28;20503;-78
2022/08/15 03:23:04;;;;;;;1.73;1.63;;;;;;;34.33;27.76;97333.84;5087614;28;20036;-78
2022/08/15 03:25:31;;;;;;;1.70;1.60;;;;;;;34.37;27.71;97320.88;5085096;28;20484;-78
2022/08/15 03:27:57;;;;;;;4.35;1.83;;;;;;;34.43;27.47;97323.69;5084611;28;20135;-79
2022/08/15 03:30:24;;;;;;;1.65;1.55;;;;;;;34.32;27.96;97320.88;5087407;28;20040;-79
2022/08/15 03:32:55;;;;;;;3.67;2.25;;;;;;;33.40;29.14;97327.63;5085991;28;20061;-79
2022/08/15 03:35:25;;;;;;;2.50;2.40;;;;;;;32.27;31.12;97334.72;5085444;28;20043;-79
2022/08/15 03:37:51;;;;;;;1.70;1.60;;;;;;;32.52;30.74;97331.00;5090996;28;20035;-78
2022/08/15 03:40:18;;;;;;;2.45;1.75;;;;;;;33.11;29.56;97323.22;5091366;28;20090;-78
2022/08/15 03:42:59;;;;;;;1.83;1.73;;;;;;;33.12;29.83;97332.50;5092627;28;20031;-78
2022/08/15 03:45:26;;;;;;;;;;;;;;;32.10;30.78;97334.59;5092771;28;20047;-78
2022/08/15 03:47:52;;;;;;;1.45;1.35;;;;;;;32.54;30.58;97342.63;5091059;28;19919;-78
2022/08/15 03:50:20;;;;;;;2.17;2.08;;;;;;;32.81;29.70;97344.03;5090476;28;20052;-78
2022/08/15 03:52:50;;;;;;;1.73;1.63;;;;;;;33.01;29.52;97341.00;5089888;28;20441;-78
2022/08/15 03:55:18;;;;;;;2.15;1.77;;;;;;;33.40;28.78;97344.72;5091380;28;20035;-79
2022/08/15 03:57:45;;;;;;;1.50;1.40;;;;;;;32.45;30.31;97342.81;5090457;28;20036;-78
2022/08/15 04:00:13;;;;;;;1.75;1.65;;;;;;;31.53;31.69;97350.91;5092824;28;20042;-79
2022/08/15 04:02:39;;;;;;;1.45;1.35;;;;;;;32.13;30.91;97356.31;5087026;28;20484;-79
2022/08/15 04:05:07;;;;;;;2.00;1.90;;;;;;;32.53;29.79;97350.38;5089384;28;20024;-78
2022/08/15 04:07:36;;;;;;;1.67;1.58;;;;;;;32.88;29.84;97352.84;5086718;28;20055;-78
2022/08/15 04:10:04;;;;;;;3.08;1.83;;;;;;;33.12;29.85;97360.94;5091153;28;20028;-79
2022/08/15 04:12:38;;;;;;;2.15;2.03;;;;;;;32.03;32.75;97363.47;5092386;28;20060;-78
2022/08/15 04:15:07;;;;;;;4.68;3.17;;;;;;;30.38;36.04;97375.34;5093235;28;20028;-78
2022/08/15 04:17:34;;;;;;;2.47;2.28;;;;;;;31.16;34.68;97362.91;5085618;28;20472;-79
2022/08/15 04:20:01;;;;;;;2.50;2.30;;;;;;;30.84;35.49;97355.56;5090124;28;20027;-78
2022/08/15 04:22:39;;;;;;;3.35;3.13;;;;;;;30.89;35.29;97345.59;5091487;28;20504;-79
2022/08/15 04:25:14;;;;;;;2.80;2.60;;;;;;;31.87;33.66;97347.06;5090603;28;20056;-79
2022/08/15 04:27:41;;;;;;;3.85;3.42;;;;;;;31.42;34.36;97351.56;5088807;28;20040;-78
2022/08/15 04:30:09;;;;;;;3.35;3.00;;;;;;;31.33;34.70;97360.25;5090235;28;20024;-79
2022/08/15 04:32:37;;;;;;;3.40;3.20;;;;;;;31.31;34.55;97357.13;5083483;28;20043;-80
2022/08/15 04:35:04;;;;;;;2.72;2.45;;;;;;;32.05;33.56;97361.69;5088643;28;20036;-78
2022/08/15 04:37:30;;;;;;;3.05;2.80;;;;;;;32.61;32.42;97354.28;5088834;28;20518;-78
2022/08/15 04:39:57;;;;;;;3.35;3.05;;;;;;;32.64;32.56;97358.97;5091150;28;20028;-78
2022/08/15 04:42:24;;;;;;;2.45;2.35;;;;;;;33.18;32.04;97367.44;5089892;28;20039;-78
2022/08/15 04:44:51;;;;;;;3.13;2.88;;;;;;;33.66;31.25;97358.75;5090597;28;20085;-78
2022/08/15 04:47:17;;;;;;;3.10;2.88;;;;;;;33.75;31.29;97362.09;5089335;28;20036;-78
2022/08/15 04:49:44;;;;;;;2.95;2.75;;;;;;;33.57;31.75;97361.84;5090230;28;20117;-78
2022/08/15 04:52:14;;;;;;;3.92;3.05;;;;;;;33.05;32.62;97350.84;5089300;28;20024;-79
2022/08/15 04:54:41;;;;;;;4.18;3.70;;;;;;;32.61;33.43;97351.44;5089603;28;20047;-78
2022/08/15 04:57:08;;;;;;;3.05;2.85;;;;;;;33.02;32.92;97353.97;5088702;28;20034;-78
2022/08/15 04:59:36;;;;;;;3.28;2.97;;;;;;;33.43;32.55;97350.16;5089831;28;20027;-79
2022/08/15 05:02:08;;;;;;;4.43;3.97;;;;;;;32.28;34.64;97344.81;5085986;28;20392;-78
2022/08/15 05:04:34;;;;;;;5.35;3.53;;;;;;;32.21;34.87;97350.97;5091562;28;20032;-78
2022/08/15 05:07:00;;;;;;;3.65;3.35;;;;;;;32.74;33.79;97351.75;5091991;28;20400;-78
2022/08/15 05:09:26;;;;;;;5.68;5.10;;;;;;;31.70;35.87;97349.78;5084767;28;20028;-78
2022/08/15 05:11:53;;;;;;;4.07;3.67;;;;;;;32.08;35.40;97349.31;5085451;28;20032;-78
2022/08/15 05:14:19;;;;;;;6.32;4.07;;;;;;;31.84;35.48;97342.38;5084055;28;20373;-78
2022/08/15 05:16:45;;;;;;;3.92;3.60;;;;;;;32.01;35.33;97343.31;5080205;28;20403;-78
2022/08/15 05:19:11;;;;;;;4.65;4.25;;;;;;;31.44;36.88;97337.66;5085582;28;20039;-78
2022/08/15 05:21:39;;;;;;;4.97;4.47;;;;;;;31.38;37.26;97345.34;5080466;28;20036;-78
2022/08/15 05:24:06;;;;;;;4.88;4.47;;;;;;;31.40;37.11;97343.56;5091288;28;20391;-78
2022/08/15 05:26:33;;;;;;;4.72;4.32;;;;;;;32.01;35.93;97344.09;5093495;28;20032;-78
2022/08/15 05:28:59;;;;;;;3.80;3.50;;;;;;;32.86;34.39;97346.13;5089948;28;20074;-78
2022/08/15 05:31:26;;;;;;;11.50;4.85;;;;;;;31.90;35.70;97340.38;5080085;28;20036;-79
2022/08/15 05:33:53;;;;;;;3.90;3.60;;;;;;;32.79;34.67;97344.56;5086314;28;20040;-79
2022/08/15 05:36:20;;;;;;;3.72;3.42;;;;;;;32.48;35.19;97339.75;5093619;28;20036;-78
2022/08/15 05:38:51;;;;;;;3.80;3.50;;;;;;;32.02;36.60;97350.56;5076450;28;20054;-78
2022/08/15 05:41:24;;;;;;;4.03;3.72;;;;;;;31.60;37.90;97356.91;5095813;28;20034;-78
2022/08/15 05:44:19;;;;;;;5.35;4.85;;;;;;;31.36;37.08;97354.34;5093588;28;20512;-78
2022/08/15 05:46:53;;;;;;;4.40;4.00;;;;;;;31.82;37.11;97362.00;5093313;28;20036;-78
2022/08/15 05:49:39;;;;;;;4.70;4.18;;;;;;;32.11;36.22;97367.41;5093673;28;20031;-79
2022/08/15 05:52:39;;;;;;;4.05;3.70;;;;;;;32.80;35.02;97368.84;5093300;28;20123;-79
2022/08/15 05:55:40;;;;;;;6.13;5.53;;;;;;;31.79;37.02;97365.84;5089081;28;20031;-78
2022/08/15 05:58:29;;;;;;;4.53;4.03;;;;;;;32.66;35.54;97353.53;5072957;28;20452;-78
2022/08/15 06:01:26;;;;;;;6.50;5.78;;;;;;;30.64;38.71;97366.91;5091884;28;20047;-78
2022/08/15 06:04:15;;;;;;;5.60;5.10;;;;;;;31.15;38.92;97358.53;5092702;28;20039;-78
2022/08/15 06:06:45;;;;;;;5.03;4.53;;;;;;;32.29;36.60;97354.88;5088699;28;20031;-78
2022/08/15 06:09:26;;;;;;;4.85;4.45;;;;;;;32.37;36.59;97356.72;5077114;28;20096;-78
2022/08/15 06:11:58;;;;;;;3.83;3.53;;;;;;;33.44;34.93;97348.09;5085125;28;20043;-78
2022/08/15 06:14:49;;;;;;;6.22;4.13;;;;;;;33.15;35.80;97351.41;5113901;28;20084;-78
2022/08/15 06:17:42;;;;;;;4.15;3.85;;;;;;;32.85;36.32;97353.88;5097391;28;20479;-78
2022/08/15 06:20:11;;;;;;;4.90;4.50;;;;;;;32.98;35.92;97362.69;5093683;28;20028;-78
2022/08/15 06:22:59;;;;;;;3.78;3.47;;;;;;;33.72;35.08;97354.63;5093315;28;20039;-79
2022/08/15 06:25:54;;;;;;;3.67;3.38;;;;;;;33.79;35.17;97365.50;5089808;28;20162;-78
2022/08/15 06:28:53;;;;;;;3.90;3.42;;;;;;;33.65;35.28;97365.75;5092289;28;20487;-78
2022/08/15 06:31:31;;;;;;;4.68;3.75;;;;;;;34.00;35.10;97369.59;5092668;28;20040;-79
2022/08/15 06:34:19;;;;;;;4.28;3.88;;;;;;;34.13;34.71;97371.19;5090599;28;20115;-79
2022/08/15 06:36:54;;;;;;;3.75;3.38;;;;;;;34.61;34.56;97368.78;5092892;28;20484;-78
2022/08/15 06:39:20;;;;;;;3.58;3.28;;;;;;;34.22;35.50;97376.59;5084991;28;20032;-78
2022/08/15 06:41:53;;;;;;;4.25;3.85;;;;;;;33.99;34.77;97375.84;5092609;28;20032;-79
2022/08/15 06:44:19;;;;;;;5.93;4.78;;;;;;;34.22;34.33;97368.84;5090956;28;20063;-78
2022/08/15 06:46:47;;;;;;;5.35;4.57;;;;;;;33.61;36.69;97360.28;5073296;28;20040;-78
2022/08/15 06:49:16;;;;;;;5.72;5.03;;;;;;;33.69;36.58;97364.19;5083798;28;20085;-79
2022/08/15 06:51:43;;;;;;;5.47;4.95;;;;;;;33.62;36.76;97361.06;5089677;28;20039;-78
2022/08/15 06:54:22;;;;;;;4.47;4.07;;;;;;;34.11;36.52;97357.47;5085761;28;20504;-78
2022/08/15 06:57:14;;;;;;;4.93;4.00;;;;;;;34.78;35.55;97357.28;5086597;28;20044;-79
2022/08/15 06:59:55;;;;;;;7.30;4.63;;;;;;;34.75;34.59;97371.31;5083173;28;20108;-78
2022/08/15 07:03:00;;;;;;;5.80;4.28;;;;;;;35.37;34.31;97363.25;5087560;28;20043;-80
2022/08/15 07:05:48;;;;;;;5.30;4.85;;;;;;;35.72;34.05;97353.94;5059803;28;20398;-80
2022/08/15 07:08:24;;;;;;;4.40;4.00;;;;;;;36.10;33.31;97349.22;5088339;28;20107;-78
2022/08/15 07:11:14;;;;;;;6.43;4.68;;;;;;;36.30;33.03;97354.47;5092167;28;20032;-78
2022/08/15 07:14:07;;;;;;;4.50;4.10;;;;;;;36.33;33.06;97353.41;5089953;28;20085;-78
2022/08/15 07:16:38;;;;;;;6.35;5.20;;;;;;;36.10;34.59;97363.50;5091587;28;20081;-79
2022/08/15 07:19:07;;;;;;;4.38;3.97;;;;;;;36.03;34.00;97356.31;5094178;28;20137;-78
2022/08/15 07:21:33;;;;;;;5.20;4.70;;;;;;;36.13;34.12;97357.50;5089932;28;20033;-78
2022/08/15 07:24:09;;;;;;;8.00;4.78;;;;;;;36.33;33.27;97368.47;5091863;28;20039;-78
2022/08/15 07:26:48;;;;;;;4.45;4.05;;;;;;;36.96;32.69;97361.56;5091549;28;20066;-78
2022/08/15 07:29:38;;;;;;;5.30;4.40;;;;;;;36.79;32.86;97366.69;5089998;28;20137;-79
2022/08/15 07:32:35;;;;;;;6.50;5.05;;;;;;;36.72;32.41;97368.06;5084872;28;20470;-78
2022/08/15 07:35:04;;;;;;;5.25;4.50;;;;;;;36.96;31.70;97373.78;5087396;28;20102;-80
2022/08/15 07:37:34;;;;;;;5.72;4.72;;;;;;;35.85;34.82;97374.84;5088612;28;20077;-79
2022/08/15 07:40:17;;;;;;;5.28;4.88;;;;;;;35.36;34.87;97371.03;5093838;28;20036;-79
2022/08/15 07:42:44;;;;;;;5.65;5.07;;;;;;;35.59;33.71;97363.16;5085809;28;20040;-78
2022/08/15 07:45:17;;;;;;;6.43;5.18;;;;;;;36.45;32.88;97358.50;5090768;28;20071;-78
2022/08/15 07:48:24;;;;;;;6.40;5.53;;;;;;;37.12;32.39;97360.56;5089013;28;20404;-78
2022/08/15 07:51:15;;;;;;;5.47;4.95;;;;;;;37.91;30.95;97362.53;5089685;28;20047;-78
2022/08/15 07:53:59;;;;;;;5.43;4.53;;;;;;;37.93;30.55;97362.75;5090873;28;20036;-78
2022/08/15 07:56:28;;;;;;;5.82;5.32;;;;;;;36.26;33.01;97354.00;5088279;28;20071;-79
2022/08/15 07:59:07;;;;;;;5.63;4.90;;;;;;;36.98;31.76;97356.84;5086343;28;20040;-79
2022/08/15 08:01:34;;;;;;;6.68;4.90;;;;;;;37.06;31.96;97352.03;5086831;28;20457;-79
2022/08/15 08:04:25;;;;;;;6.32;5.38;;;;;;;37.67;31.73;97359.03;5089904;28;20544;-78
2022/08/15 08:07:08;;;;;;;5.35;4.85;;;;;;;38.47;30.06;97364.44;5089031;28;20029;-78
2022/08/15 08:09:47;;;;;;;5.93;5.32;;;;;;;38.22;30.03;97363.81;5087867;28;20525;-78
2022/08/15 08:12:38;;;;;;;5.57;5.03;;;;;;;38.12;30.13;97359.03;5088106;28;20504;-79
2022/08/15 08:15:30;;;;;;;5.15;4.68;;;;;;;38.50;30.26;97369.06;5089709;28;20301;-78
2022/08/15 08:18:11;;;;;;;4.60;4.20;;;;;;;39.04;27.79;97359.91;5087793;28;20124;-79
2022/08/15 08:20:46;;;;;;;7.30;4.97;;;;;;;38.16;31.94;97368.88;5091387;28;20043;-79
2022/08/15 08:23:54;;;;;;;5.05;4.57;;;;;;;37.35;30.66;97371.16;5087844;28;20127;-78
2022/08/15 08:26:44;;;;;;;6.53;6.03;;;;;;;36.99;32.56;97363.34;5084686;28;20080;-79
2022/08/15 08:29:19;;;;;;;5.90;5.40;;;;;;;36.60;32.25;97366.66;5084984;28;20063;-80
2022/08/15 08:32:17;;;;;;;5.45;5.00;;;;;;;36.43;30.91;97366.03;5086883;28;20039;-80
2022/08/15 08:35:15;;;;;;;5.45;4.95;;;;;;;36.62;32.44;97370.53;5086514;28;20039;-79
2022/08/15 08:38:13;;;;;;;4.90;4.50;;;;;;;38.01;31.28;97368.63;5089516;28;20039;-80
2022/08/15 08:41:24;;;;;;;5.53;5.03;;;;;;;36.54;32.18;97365.94;5094131;28;20040;-80
2022/08/15 08:44:08;;;;;;;8.50;6.30;;;;;;;35.73;34.52;97373.38;5087774;28;20032;-79
2022/08/15 08:47:16;;;;;;;6.80;6.18;;;;;;;35.01;35.27;97375.91;5086561;28;20060;-80
2022/08/15 08:50:17;;;;;;;15.00;10.77;;;;;;;33.63;39.05;97374.78;5084068;28;20047;-79
2022/08/15 08:52:48;;;;;;;15.13;9.80;;;;;;;34.22;38.27;97370.91;5086098;28;20054;-81
2022/08/15 08:55:20;;;;;;;9.63;8.63;;;;;;;34.19;38.76;97366.28;5086867;28;20100;-82
2022/08/15 08:57:52;;;;;;;10.35;9.23;;;;;;;34.02;39.82;97371.97;5086385;28;20040;-82
2022/08/15 09:00:22;;;;;;;13.10;9.82;;;;;;;34.26;39.34;97365.75;5090979;28;20036;-81
2022/08/15 09:02:58;;;;;;;17.83;14.00;;;;;;;32.88;41.94;97369.13;5086352;28;20036;-80
2022/08/15 09:05:36;;;;;;;13.95;12.18;;;;;;;32.56;42.54;97374.16;5087161;28;20036;-79
2022/08/15 09:08:11;;;;;;;13.85;11.43;;;;;;;33.69;41.18;97377.66;5085382;28;20553;-80
2022/08/15 09:10:39;;;;;;;12.45;10.80;;;;;;;33.56;41.98;97381.00;5089233;28;20106;-79
2022/08/15 09:15:57;;;;;;;16.52;11.95;;;;;;;33.99;38.28;97381.53;5085476;28;20043;-79
2022/08/15 09:18:31;;;;;;;12.73;10.55;;;;;;;34.96;38.12;97383.16;5088535;28;20036;-80
2022/08/15 09:20:58;;;;;;;14.93;12.63;;;;;;;34.12;40.54;97381.03;5088349;28;20032;-80
2022/08/15 09:23:27;;;;;;;12.40;10.65;;;;;;;34.80;38.15;97378.28;5088072;28;20078;-80
2022/08/15 09:26:12;;;;;;;9.70;8.80;;;;;;;35.68;34.19;97377.09;5090120;28;20155;-80
2022/08/15 09:28:44;;;;;;;8.82;7.65;;;;;;;37.54;31.62;97368.31;5084701;28;20059;-81
2022/08/15 09:31:16;;;;;;;9.95;8.70;;;;;;;36.18;34.54;97370.19;5090520;28;20111;-80
2022/08/15 09:33:57;;;;;;;11.18;10.02;;;;;;;34.20;37.44;97368.59;5088176;28;20035;-80
2022/08/15 09:36:41;;;;;;;14.45;11.75;;;;;;;34.15;39.08;97363.66;5076391;28;20192;-80
2022/08/15 09:39:07;;;;;;;11.45;10.23;;;;;;;34.60;39.56;97355.81;5092346;28;20108;-80
2022/08/15 09:42:10;;;;;;;11.63;10.38;;;;;;;34.58;39.98;97355.56;5090706;28;20472;-80
2022/08/15 09:44:58;;;;;;;11.52;10.40;;;;;;;35.09;38.50;97362.63;5085175;28;20033;-80
2022/08/15 09:47:47;;;;;;;11.52;9.25;;;;;;;35.64;35.99;97353.72;5073795;28;20036;-80
2022/08/15 09:50:28;;;;;;;10.05;8.98;;;;;;;35.55;37.08;97348.34;5092033;28;20060;-80
2022/08/15 09:53:17;;;;;;;13.15;11.63;;;;;;;34.15;38.54;97340.88;5092331;28;20441;-80
2022/08/15 09:55:47;;;;;;;16.67;11.88;;;;;;;34.21;37.89;97349.41;5093532;28;20028;-81
2022/08/15 09:58:23;;;;;;;13.40;11.48;;;;;;;34.75;39.37;97339.19;5093188;28;20039;-80
2022/08/15 10:01:18;;;;;;;14.25;11.02;;;;;;;34.62;38.78;97334.03;5090913;28;20495;-81
2022/08/15 10:03:44;;;;;;;10.43;9.18;;;;;;;35.41;36.40;97338.03;5088444;28;20047;-81
2022/08/15 10:06:23;;;;;;;11.75;9.27;;;;;;;34.95;37.04;97335.19;5079260;28;20487;-80
2022/08/15 10:08:52;;;;;;;9.82;8.82;;;;;;;35.23;36.82;97344.38;5088596;28;20360;-80
2022/08/15 10:11:41;;;;;;;9.73;8.75;;;;;;;35.20;36.78;97343.38;5090902;28;20063;-80
2022/08/15 10:14:25;;;;;;;13.13;10.85;;;;;;;34.74;40.86;97343.31;5082004;28;20182;-80
2022/08/15 10:16:59;;;;;;;14.90;11.48;;;;;;;33.85;42.27;97348.38;5092743;28;20078;-80
2022/08/15 10:19:33;;;;;;;14.32;11.85;;;;;;;33.47;38.22;97338.50;5085975;28;20039;-80
2022/08/15 10:22:24;;;;;;;12.50;11.20;;;;;;;34.47;40.87;97338.47;5092713;28;20053;-80
2022/08/15 10:25:39;;;;;;;13.68;12.27;;;;;;;34.23;37.74;97335.41;5091215;28;20039;-80
2022/08/15 10:28:11;;;;;;;13.07;11.68;;;;;;;34.04;36.88;97340.91;5076571;28;20044;-79
2022/08/15 10:30:38;;;;;;;12.02;10.70;;;;;;;35.30;36.38;97330.34;5089971;28;20046;-80
2022/08/15 10:33:30;;;;;;;10.85;9.75;;;;;;;35.21;36.81;97347.00;5089991;28;20529;-78
2022/08/15 10:36:28;;;;;;;11.52;10.13;;;;;;;36.19;35.87;97329.63;5088869;28;20078;-79
2022/08/15 10:39:12;;;;;;;9.27;8.38;;;;;;;37.72;34.29;97323.75;5069788;28;20044;-80
2022/08/15 10:41:41;;;;;;;11.05;8.05;;;;;;;37.61;36.02;97332.53;5083324;28;20050;-80
2022/08/15 10:44:22;;;;;;;12.15;10.75;;;;;;;35.99;36.47;97348.00;5093525;28;20047;-80
2022/08/15 10:46:59;;;;;;;;;;;;;;;35.41;34.10;97338.81;5092931;28;20054;-80
2022/08/15 10:49:43;;;;;;;9.93;8.93;;;;;;;35.85;38.01;97334.84;5091779;28;19916;-80
2022/08/15 10:52:39;;;;;;;12.77;11.32;;;;;;;34.73;36.20;97336.84;5093224;28;20038;-79
2022/08/15 10:55:21;;;;;;;13.98;11.45;;;;;;;34.58;37.29;97327.84;5095700;28;20038;-79
2022/08/15 10:58:00;;;;;;;11.23;10.13;;;;;;;34.71;37.38;97328.03;5093238;28;20055;-80
2022/08/15 11:00:40;;;;;;;13.90;11.52;;;;;;;34.63;39.11;97329.91;5091958;28;20426;-79
2022/08/15 11:03:18;;;;;;;15.32;13.32;;;;;;;34.53;38.44;97331.47;5091406;28;20499;-80
2022/08/15 11:05:55;;;;;;;15.30;11.93;;;;;;;34.32;41.11;97326.59;5092775;28;20433;-81
2022/08/15 11:08:23;;;;;;;13.38;11.98;;;;;;;35.28;40.52;97326.47;5082378;28;20032;-79
2022/08/15 11:10:49;;;;;;;14.00;12.57;;;;;;;35.47;34.00;97324.50;5094566;28;20442;-79
2022/08/15 11:13:20;;;;;;;13.30;11.38;;;;;;;35.43;37.07;97321.16;5094161;28;20471;-79
2022/08/15 11:15:49;;;;;;;12.48;10.70;;;;;;;36.55;35.46;97327.47;5093846;28;20031;-80
2022/08/15 11:18:42;;;;;;;15.82;10.82;;;;;;;36.25;36.29;97323.84;5089627;28;20034;-80
2022/08/15 11:21:46;;;;;;;12.18;10.75;;;;;;;35.55;33.01;97327.56;5087306;28;20519;-80
2022/08/15 11:24:13;;;;;;;10.38;9.27;;;;;;;36.91;30.18;97325.16;5092215;28;20047;-80
2022/08/15 11:26:42;;;;;;;10.13;9.13;;;;;;;36.64;33.04;97329.94;5090993;28;20590;-80
2022/08/15 11:29:23;;;;;;;8.77;7.87;;;;;;;38.38;30.56;97322.63;5089621;28;20032;-80
2022/08/15 11:31:55;;;;;;;11.48;9.73;;;;;;;36.56;34.79;97315.47;5090702;28;20063;-80
2022/08/15 11:34:23;;;;;;;10.30;9.30;;;;;;;36.46;36.74;97322.09;5089448;28;20032;-80
2022/08/15 11:36:53;;;;;;;11.90;9.93;;;;;;;35.75;36.33;97324.31;5092665;28;20040;-80
2022/08/15 11:39:20;;;;;;;12.43;9.98;;;;;;;35.66;39.08;97322.53;5087927;28;20035;-80
2022/08/15 11:41:53;;;;;;;13.75;10.77;;;;;;;35.35;39.08;97318.09;5087816;28;20056;-81
2022/08/15 11:44:27;;;;;;;11.63;9.98;;;;;;;35.27;36.89;97319.97;5100558;28;20066;-80
2022/08/15 11:46:54;;;;;;;14.68;11.13;;;;;;;34.73;39.26;97321.78;5085049;28;20028;-80
2022/08/15 11:49:32;;;;;;;10.13;9.10;;;;;;;36.68;34.63;97314.03;5091225;28;20067;-80
2022/08/15 11:52:05;;;;;;;10.00;9.07;;;;;;;36.72;36.56;97320.22;5085598;28;20033;-80
2022/08/15 11:54:32;;;;;;;11.82;10.52;;;;;;;35.74;39.09;97326.38;5088187;28;20472;-80
2022/08/15 11:57:03;;;;;;;11.45;10.10;;;;;;;35.72;38.53;97320.44;5085227;28;20115;-80
2022/08/15 11:59:39;;;;;;;11.85;10.75;;;;;;;36.12;38.13;97306.59;5088787;28;20399;-80
2022/08/15 12:02:20;;;;;;;13.63;11.48;;;;;;;36.83;36.07;97313.56;5088638;28;20044;-80
2022/08/15 12:04:49;;;;;;;12.98;11.52;;;;;;;36.25;36.76;97312.41;5088627;28;20437;-79
2022/08/15 12:07:27;;;;;;;11.57;10.48;;;;;;;36.28;36.58;97314.19;5089933;28;20107;-79
2022/08/15 12:10:05;;;;;;;11.95;10.75;;;;;;;36.11;37.88;97310.78;5090797;28;20032;-80
2022/08/15 12:12:40;;;;;;;10.82;9.70;;;;;;;36.43;33.67;97303.88;5091695;28;20064;-80